sensor_id;sensor_type;location;lat;lon;timestamp;pressure;altitude;pressure_sealevel;temperature;humidity
66021;BME280;52789;59.980;30.346;2023-04-26T00:02:16;100457.66;;;13.67;43.09
66021;BME280;52789;59.980;30.346;2023-04-26T00:04:42;100455.00;;;13.67;43.11
66021;BME280;52789;59.980;30.346;2023-04-26T00:07:07;100462.38;;;13.65;43.41
66021;BME280;52789;59.980;30.346;2023-04-26T00:09:33;100463.59;;;13.62;43.15
66021;BME280;52789;59.980;30.346;2023-04-26T00:11:58;100461.09;;;13.61;43.32
66021;BME280;52789;59.980;30.346;2023-04-26T00:14:24;100448.28;;;13.56;43.09
66021;BME280;52789;59.980;30.346;2023-04-26T00:16:49;100453.16;;;13.53;43.54
66021;BME280;52789;59.980;30.346;2023-04-26T00:19:15;100451.06;;;13.48;43.43
66021;BME280;52789;59.980;30.346;2023-04-26T00:21:41;100457.44;;;13.47;43.91
66021;BME280;52789;59.980;30.346;2023-04-26T00:24:06;100453.28;;;13.45;44.61
66021;BME280;52789;59.980;30.346;2023-04-26T00:26:32;100460.69;;;13.43;44.31
66021;BME280;52789;59.980;30.346;2023-04-26T00:28:58;100445.03;;;13.40;44.52
66021;BME280;52789;59.980;30.346;2023-04-26T00:31:23;100458.38;;;13.40;44.74
66021;BME280;52789;59.980;30.346;2023-04-26T00:33:49;100458.38;;;13.40;44.37
66021;BME280;52789;59.980;30.346;2023-04-26T00:36:15;100458.56;;;13.38;44.25
66021;BME280;52789;59.980;30.346;2023-04-26T00:38:43;100457.94;;;13.36;44.86
66021;BME280;52789;59.980;30.346;2023-04-26T00:41:09;100452.13;;;13.32;44.84
66021;BME280;52789;59.980;30.346;2023-04-26T00:43:37;100451.31;;;13.32;44.75
66021;BME280;52789;59.980;30.346;2023-04-26T00:46:08;100443.81;;;13.27;44.88
66021;BME280;52789;59.980;30.346;2023-04-26T00:48:34;100438.84;;;13.24;44.62
66021;BME280;52789;59.980;30.346;2023-04-26T00:51:00;100443.38;;;13.24;44.70
66021;BME280;52789;59.980;30.346;2023-04-26T00:53:26;100441.97;;;13.28;44.34
66021;BME280;52789;59.980;30.346;2023-04-26T00:55:52;100440.13;;;13.28;44.53
66021;BME280;52789;59.980;30.346;2023-04-26T00:58:18;100435.63;;;13.29;44.74
66021;BME280;52789;59.980;30.346;2023-04-26T01:00:43;100438.13;;;13.30;44.39
66021;BME280;52789;59.980;30.346;2023-04-26T01:03:09;100435.47;;;13.30;44.72
66021;BME280;52789;59.980;30.346;2023-04-26T01:05:35;100444.31;;;13.31;44.45
66021;BME280;52789;59.980;30.346;2023-04-26T01:08:00;100436.44;;;13.29;45.00
66021;BME280;52789;59.980;30.346;2023-04-26T01:10:28;100438.28;;;13.29;44.66
66021;BME280;52789;59.980;30.346;2023-04-26T01:12:55;100434.97;;;13.27;45.11
66021;BME280;52789;59.980;30.346;2023-04-26T01:15:21;100433.50;;;13.24;44.89
66021;BME280;52789;59.980;30.346;2023-04-26T01:17:47;100432.03;;;13.22;44.77
66021;BME280;52789;59.980;30.346;2023-04-26T01:20:13;100436.56;;;13.21;44.85
66021;BME280;52789;59.980;30.346;2023-04-26T01:22:39;100422.75;;;13.18;45.12
66021;BME280;52789;59.980;30.346;2023-04-26T01:25:04;100427.41;;;13.16;45.13
66021;BME280;52789;59.980;30.346;2023-04-26T01:27:31;100429.63;;;13.12;45.21
66021;BME280;52789;59.980;30.346;2023-04-26T01:29:57;100426.72;;;13.07;45.58
66021;BME280;52789;59.980;30.346;2023-04-26T01:32:22;100428.28;;;13.01;45.75
66021;BME280;52789;59.980;30.346;2023-04-26T01:34:47;100419.34;;;12.94;45.68
66021;BME280;52789;59.980;30.346;2023-04-26T01:37:13;100418.44;;;12.87;45.92
66021;BME280;52789;59.980;30.346;2023-04-26T01:39:38;100420.66;;;12.84;45.94
66021;BME280;52789;59.980;30.346;2023-04-26T01:42:03;100421.19;;;12.79;45.68
66021;BME280;52789;59.980;30.346;2023-04-26T01:44:30;100423.78;;;12.73;46.54
66021;BME280;52789;59.980;30.346;2023-04-26T01:46:55;100418.53;;;12.64;46.80
66021;BME280;52789;59.980;30.346;2023-04-26T01:49:20;100421.09;;;12.58;46.91
66021;BME280;52789;59.980;30.346;2023-04-26T01:51:46;100420.00;;;12.52;47.82
66021;BME280;52789;59.980;30.346;2023-04-26T01:54:11;100421.38;;;12.48;47.54
66021;BME280;52789;59.980;30.346;2023-04-26T01:56:37;100420.44;;;12.41;48.33
66021;BME280;52789;59.980;30.346;2023-04-26T01:59:02;100414.16;;;12.34;48.96
66021;BME280;52789;59.980;30.346;2023-04-26T02:01:27;100413.63;;;12.24;48.41
66021;BME280;52789;59.980;30.346;2023-04-26T02:03:53;100412.69;;;12.17;48.88
66021;BME280;52789;59.980;30.346;2023-04-26T02:06:19;100403.91;;;12.08;49.88
66021;BME280;52789;59.980;30.346;2023-04-26T02:08:45;100403.81;;;12.01;49.38
66021;BME280;52789;59.980;30.346;2023-04-26T02:11:10;100402.69;;;11.96;49.75
66021;BME280;52789;59.980;30.346;2023-04-26T02:13:36;100393.56;;;11.90;50.14
66021;BME280;52789;59.980;30.346;2023-04-26T02:16:01;100401.94;;;11.87;49.48
66021;BME280;52789;59.980;30.346;2023-04-26T02:18:27;100403.28;;;11.83;50.18
66021;BME280;52789;59.980;30.346;2023-04-26T02:20:54;100401.16;;;11.78;50.64
66021;BME280;52789;59.980;30.346;2023-04-26T02:23:19;100406.81;;;11.75;50.55
66021;BME280;52789;59.980;30.346;2023-04-26T02:25:45;100407.00;;;11.74;50.92
66021;BME280;52789;59.980;30.346;2023-04-26T02:28:11;100408.00;;;11.73;51.12
66021;BME280;52789;59.980;30.346;2023-04-26T02:30:37;100414.34;;;11.72;51.42
66021;BME280;52789;59.980;30.346;2023-04-26T02:33:02;100410.69;;;11.73;51.56
66021;BME280;52789;59.980;30.346;2023-04-26T02:35:27;100407.00;;;11.74;51.88
66021;BME280;52789;59.980;30.346;2023-04-26T02:37:53;100406.63;;;11.77;52.03
66021;BME280;52789;59.980;30.346;2023-04-26T02:40:18;100405.66;;;11.78;51.76
66021;BME280;52789;59.980;30.346;2023-04-26T02:42:45;100409.16;;;11.78;51.62
66021;BME280;52789;59.980;30.346;2023-04-26T02:45:14;100413.66;;;11.78;51.81
66021;BME280;52789;59.980;30.346;2023-04-26T02:47:39;100407.47;;;11.77;51.32
66021;BME280;52789;59.980;30.346;2023-04-26T02:50:05;100403.66;;;11.80;51.87
66021;BME280;52789;59.980;30.346;2023-04-26T02:52:31;100404.28;;;11.82;51.31
66021;BME280;52789;59.980;30.346;2023-04-26T02:54:57;100403.28;;;11.83;50.75
66021;BME280;52789;59.980;30.346;2023-04-26T02:57:22;100398.78;;;11.84;50.54
66021;BME280;52789;59.980;30.346;2023-04-26T02:59:48;100403.09;;;11.85;50.91
66021;BME280;52789;59.980;30.346;2023-04-26T03:02:13;100396.59;;;11.87;50.95
66021;BME280;52789;59.980;30.346;2023-04-26T03:04:38;100407.09;;;11.89;50.75
66021;BME280;52789;59.980;30.346;2023-04-26T03:07:04;100401.94;;;11.87;51.26
66021;BME280;52789;59.980;30.346;2023-04-26T03:09:29;100396.59;;;11.87;51.62
66021;BME280;52789;59.980;30.346;2023-04-26T03:11:55;100403.94;;;11.85;51.57
66021;BME280;52789;59.980;30.346;2023-04-26T03:14:20;100396.59;;;11.87;51.55
66021;BME280;52789;59.980;30.346;2023-04-26T03:16:46;100399.94;;;11.89;52.05
66021;BME280;52789;59.980;30.346;2023-04-26T03:19:12;100384.38;;;11.93;52.01
66021;BME280;52789;59.980;30.346;2023-04-26T03:21:38;100393.50;;;11.98;51.79
66021;BME280;52789;59.980;30.346;2023-04-26T03:24:03;100392.75;;;12.04;51.58
66021;BME280;52789;59.980;30.346;2023-04-26T03:26:28;100390.13;;;12.19;51.21
66021;BME280;52789;59.980;30.346;2023-04-26T03:28:54;100394.50;;;12.50;50.72
66021;BME280;52789;59.980;30.346;2023-04-26T03:31:19;100390.38;;;12.98;49.84
66021;BME280;52789;59.980;30.346;2023-04-26T03:33:45;100387.47;;;13.65;48.82
66021;BME280;52789;59.980;30.346;2023-04-26T03:36:11;100387.97;;;14.31;46.12
66021;BME280;52789;59.980;30.346;2023-04-26T03:38:36;100382.09;;;14.77;45.28
66021;BME280;52789;59.980;30.346;2023-04-26T03:41:02;100384.16;;;14.75;45.68
66021;BME280;52789;59.980;30.346;2023-04-26T03:43:27;100377.56;;;14.43;45.60
66021;BME280;52789;59.980;30.346;2023-04-26T03:45:53;100374.63;;;14.10;46.26
66021;BME280;52789;59.980;30.346;2023-04-26T03:48:18;100382.72;;;13.88;46.90
66021;BME280;52789;59.980;30.346;2023-04-26T03:50:44;100377.25;;;13.75;46.79
66021;BME280;52789;59.980;30.346;2023-04-26T03:53:10;100373.31;;;13.71;47.21
66021;BME280;52789;59.980;30.346;2023-04-26T03:55:36;100380.25;;;13.66;47.68
66021;BME280;52789;59.980;30.346;2023-04-26T03:58:01;100375.47;;;13.61;47.65
66021;BME280;52789;59.980;30.346;2023-04-26T04:00:27;100369.75;;;13.64;47.89
66021;BME280;52789;59.980;30.346;2023-04-26T04:02:53;100369.34;;;13.67;47.41
66021;BME280;52789;59.980;30.346;2023-04-26T04:05:18;100365.28;;;13.71;47.22
66021;BME280;52789;59.980;30.346;2023-04-26T04:07:43;100373.06;;;13.66;46.97
66021;BME280;52789;59.980;30.346;2023-04-26T04:10:09;100366.34;;;13.55;46.82
66021;BME280;52789;59.980;30.346;2023-04-26T04:12:35;100358.84;;;13.44;46.93
66021;BME280;52789;59.980;30.346;2023-04-26T04:15:00;100372.19;;;13.23;47.04
66021;BME280;52789;59.980;30.346;2023-04-26T04:17:26;100369.16;;;13.11;47.32
66021;BME280;52789;59.980;30.346;2023-04-26T04:19:51;100369.94;;;13.05;47.87
66021;BME280;52789;59.980;30.346;2023-04-26T04:22:16;100374.00;;;13.01;47.63
66021;BME280;52789;59.980;30.346;2023-04-26T04:24:42;100372.03;;;12.95;47.90
66021;BME280;52789;59.980;30.346;2023-04-26T04:27:08;100362.13;;;12.89;48.11
66021;BME280;52789;59.980;30.346;2023-04-26T04:29:33;100366.00;;;12.86;48.53
66021;BME280;52789;59.980;30.346;2023-04-26T04:31:59;100365.16;;;12.86;48.50
66021;BME280;52789;59.980;30.346;2023-04-26T04:34:24;100370.50;;;12.86;48.58
66021;BME280;52789;59.980;30.346;2023-04-26T04:36:50;100364.78;;;12.89;48.38
66021;BME280;52789;59.980;30.346;2023-04-26T04:39:15;100363.75;;;12.90;48.69
66021;BME280;52789;59.980;30.346;2023-04-26T04:41:41;100373.44;;;12.91;48.68
66021;BME280;52789;59.980;30.346;2023-04-26T04:44:13;100367.53;;;12.95;48.88
66021;BME280;52789;59.980;30.346;2023-04-26T04:46:40;100372.31;;;13.00;49.08
66021;BME280;52789;59.980;30.346;2023-04-26T04:49:05;100368.28;;;13.04;48.90
66021;BME280;52789;59.980;30.346;2023-04-26T04:51:34;100366.69;;;13.10;48.64
66021;BME280;52789;59.980;30.346;2023-04-26T04:54:12;100360.81;;;13.36;48.45
66021;BME280;52789;59.980;30.346;2023-04-26T04:56:38;100364.53;;;14.40;46.32
66021;BME280;52789;59.980;30.346;2023-04-26T04:59:04;100367.22;;;14.74;45.20
66021;BME280;52789;59.980;30.346;2023-04-26T05:01:32;100365.09;;;14.56;45.38
66021;BME280;52789;59.980;30.346;2023-04-26T05:03:58;100360.56;;;14.29;46.01
66021;BME280;52789;59.980;30.346;2023-04-26T05:06:26;100364.13;;;14.08;46.63
66021;BME280;52789;59.980;30.346;2023-04-26T05:08:52;100365.50;;;13.98;47.18
66021;BME280;52789;59.980;30.346;2023-04-26T05:11:17;100370.22;;;13.95;47.34
66021;BME280;52789;59.980;30.346;2023-04-26T05:13:43;100365.44;;;13.91;47.11
66021;BME280;52789;59.980;30.346;2023-04-26T05:16:08;100364.63;;;13.90;47.34
66021;BME280;52789;59.980;30.346;2023-04-26T05:18:33;100369.19;;;13.97;47.35
66021;BME280;52789;59.980;30.346;2023-04-26T05:20:59;100364.72;;;14.04;47.46
66021;BME280;52789;59.980;30.346;2023-04-26T05:23:24;100359.59;;;14.09;47.46
66021;BME280;52789;59.980;30.346;2023-04-26T05:25:49;100364.81;;;14.17;47.10
66021;BME280;52789;59.980;30.346;2023-04-26T05:28:15;100372.31;;;14.28;46.67
66021;BME280;52789;59.980;30.346;2023-04-26T05:30:40;100367.69;;;14.43;46.35
66021;BME280;52789;59.980;30.346;2023-04-26T05:33:06;100361.38;;;14.57;45.84
66021;BME280;52789;59.980;30.346;2023-04-26T05:35:31;100365.13;;;14.70;45.88
66021;BME280;52789;59.980;30.346;2023-04-26T05:37:57;100370.97;;;14.80;45.48
66021;BME280;52789;59.980;30.346;2023-04-26T05:40:22;100362.53;;;14.83;45.31
66021;BME280;52789;59.980;30.346;2023-04-26T05:42:48;100364.41;;;14.89;45.39
66021;BME280;52789;59.980;30.346;2023-04-26T05:45:18;100367.72;;;14.91;45.23
66021;BME280;52789;59.980;30.346;2023-04-26T05:47:43;100363.59;;;14.95;45.04
66021;BME280;52789;59.980;30.346;2023-04-26T05:50:08;100363.81;;;15.00;45.03
66021;BME280;52789;59.980;30.346;2023-04-26T05:52:34;100360.72;;;15.03;44.68
66021;BME280;52789;59.980;30.346;2023-04-26T05:54:59;100363.66;;;15.08;44.28
66021;BME280;52789;59.980;30.346;2023-04-26T05:57:29;100355.44;;;15.16;44.85
66021;BME280;52789;59.980;30.346;2023-04-26T05:59:54;100354.41;;;15.24;44.04
66021;BME280;52789;59.980;30.346;2023-04-26T06:02:19;100351.97;;;15.36;44.53
66021;BME280;52789;59.980;30.346;2023-04-26T06:04:45;100355.91;;;15.46;43.99
66021;BME280;52789;59.980;30.346;2023-04-26T06:07:10;100359.81;;;15.50;43.34
66021;BME280;52789;59.980;30.346;2023-04-26T06:09:36;100359.84;;;15.57;43.86
66021;BME280;52789;59.980;30.346;2023-04-26T06:12:01;100362.38;;;15.65;43.50
66021;BME280;52789;59.980;30.346;2023-04-26T06:14:28;100358.44;;;15.74;43.87
66021;BME280;52789;59.980;30.346;2023-04-26T06:16:53;100354.72;;;15.82;43.56
66021;BME280;52789;59.980;30.346;2023-04-26T06:19:19;100359.47;;;15.87;42.84
66021;BME280;52789;59.980;30.346;2023-04-26T06:21:44;100349.75;;;15.86;42.95
66021;BME280;52789;59.980;30.346;2023-04-26T06:24:09;100348.94;;;15.92;42.51
66021;BME280;52789;59.980;30.346;2023-04-26T06:26:35;100350.19;;;15.96;41.77
66021;BME280;52789;59.980;30.346;2023-04-26T06:29:00;100343.38;;;16.00;42.43
66021;BME280;52789;59.980;30.346;2023-04-26T06:31:26;100343.97;;;16.02;41.91
66021;BME280;52789;59.980;30.346;2023-04-26T06:33:51;100345.81;;;16.08;42.43
66021;BME280;52789;59.980;30.346;2023-04-26T06:36:16;100342.28;;;16.14;42.71
66021;BME280;52789;59.980;30.346;2023-04-26T06:38:42;100350.38;;;16.21;42.28
66021;BME280;52789;59.980;30.346;2023-04-26T06:41:07;100343.31;;;16.26;42.04
66021;BME280;52789;59.980;30.346;2023-04-26T06:43:32;100348.91;;;16.31;41.57
66021;BME280;52789;59.980;30.346;2023-04-26T06:45:58;100341.66;;;16.32;39.83
66021;BME280;52789;59.980;30.346;2023-04-26T06:48:23;100343.50;;;16.38;40.61
66021;BME280;52789;59.980;30.346;2023-04-26T06:50:48;100334.97;;;16.48;40.67
66021;BME280;52789;59.980;30.346;2023-04-26T06:53:14;100340.56;;;16.53;40.95
66021;BME280;52789;59.980;30.346;2023-04-26T06:55:39;100341.16;;;16.61;40.96
66021;BME280;52789;59.980;30.346;2023-04-26T06:58:05;100338.47;;;16.68;40.70
66021;BME280;52789;59.980;30.346;2023-04-26T07:00:30;100338.03;;;16.71;39.62
66021;BME280;52789;59.980;30.346;2023-04-26T07:02:55;100345.91;;;16.79;40.11
66021;BME280;52789;59.980;30.346;2023-04-26T07:05:21;100341.31;;;16.86;39.68
66021;BME280;52789;59.980;30.346;2023-04-26T07:07:46;100344.78;;;16.93;39.47
66021;BME280;52789;59.980;30.346;2023-04-26T07:10:12;100350.56;;;16.97;39.15
66021;BME280;52789;59.980;30.346;2023-04-26T07:12:38;100349.47;;;17.04;38.55
66021;BME280;52789;59.980;30.346;2023-04-26T07:15:03;100348.03;;;17.09;38.03
66021;BME280;52789;59.980;30.346;2023-04-26T07:17:31;100342.22;;;17.12;38.44
66021;BME280;52789;59.980;30.346;2023-04-26T07:19:56;100349.00;;;17.21;38.84
66021;BME280;52789;59.980;30.346;2023-04-26T07:22:22;100351.41;;;17.29;38.91
66021;BME280;52789;59.980;30.346;2023-04-26T07:24:47;100352.22;;;17.36;37.85
66021;BME280;52789;59.980;30.346;2023-04-26T07:27:12;100348.44;;;17.44;38.46
66021;BME280;52789;59.980;30.346;2023-04-26T07:29:38;100340.13;;;17.45;37.26
66021;BME280;52789;59.980;30.346;2023-04-26T07:32:03;100343.81;;;17.51;37.46
66021;BME280;52789;59.980;30.346;2023-04-26T07:34:29;100341.91;;;17.58;37.58
66021;BME280;52789;59.980;30.346;2023-04-26T07:36:54;100342.47;;;17.67;36.60
66021;BME280;52789;59.980;30.346;2023-04-26T07:39:20;100343.28;;;17.74;37.21
66021;BME280;52789;59.980;30.346;2023-04-26T07:41:46;100337.00;;;17.80;36.90
66021;BME280;52789;59.980;30.346;2023-04-26T07:44:16;100345.25;;;17.85;36.74
66021;BME280;52789;59.980;30.346;2023-04-26T07:46:41;100339.03;;;17.84;36.89
66021;BME280;52789;59.980;30.346;2023-04-26T07:49:06;100339.19;;;17.89;36.66
66021;BME280;52789;59.980;30.346;2023-04-26T07:51:33;100333.16;;;17.94;36.42
66021;BME280;52789;59.980;30.346;2023-04-26T07:53:59;100340.44;;;17.93;35.38
66021;BME280;52789;59.980;30.346;2023-04-26T07:56:27;100333.59;;;17.91;35.82
66021;BME280;52789;59.980;30.346;2023-04-26T07:58:54;100331.91;;;17.97;36.58
66021;BME280;52789;59.980;30.346;2023-04-26T08:01:20;100332.22;;;18.07;36.32
66021;BME280;52789;59.980;30.346;2023-04-26T08:03:50;100331.09;;;18.14;36.34
66021;BME280;52789;59.980;30.346;2023-04-26T08:06:18;100336.22;;;18.22;35.88
66021;BME280;52789;59.980;30.346;2023-04-26T08:08:43;100330.97;;;18.27;35.98
66021;BME280;52789;59.980;30.346;2023-04-26T08:11:13;100339.06;;;18.27;35.26
66021;BME280;52789;59.980;30.346;2023-04-26T08:13:38;100334.50;;;18.28;35.36
66021;BME280;52789;59.980;30.346;2023-04-26T08:18:48;100340.41;;;18.37;34.94
66021;BME280;52789;59.980;30.346;2023-04-26T08:21:31;100330.13;;;18.45;34.91
66021;BME280;52789;59.980;30.346;2023-04-26T08:24:04;100331.13;;;18.51;34.93
66021;BME280;52789;59.980;30.346;2023-04-26T08:26:34;100331.56;;;18.48;34.72
66021;BME280;52789;59.980;30.346;2023-04-26T08:29:11;100324.69;;;18.52;35.25
66021;BME280;52789;59.980;30.346;2023-04-26T08:31:38;100321.25;;;18.63;34.56
66021;BME280;52789;59.980;30.346;2023-04-26T08:34:13;100322.91;;;18.64;34.22
66021;BME280;52789;59.980;30.346;2023-04-26T08:36:39;100322.13;;;18.57;33.54
66021;BME280;52789;59.980;30.346;2023-04-26T08:39:07;100323.28;;;18.68;34.02
66021;BME280;52789;59.980;30.346;2023-04-26T08:41:41;100327.16;;;18.72;33.84
66021;BME280;52789;59.980;30.346;2023-04-26T08:44:07;100315.69;;;18.76;33.63
66021;BME280;52789;59.980;30.346;2023-04-26T08:46:35;100327.84;;;18.85;33.63
66021;BME280;52789;59.980;30.346;2023-04-26T08:49:25;100322.84;;;19.01;32.82
66021;BME280;52789;59.980;30.346;2023-04-26T08:51:46;100319.88;;;19.21;33.11
66021;BME280;52789;59.980;30.346;2023-04-26T08:54:13;100321.78;;;19.32;32.92
66021;BME280;52789;59.980;30.346;2023-04-26T08:56:40;100316.31;;;19.38;32.63
66021;BME280;52789;59.980;30.346;2023-04-26T08:59:08;100314.31;;;19.45;32.47
66021;BME280;52789;59.980;30.346;2023-04-26T09:01:33;100318.06;;;19.44;32.23
66021;BME280;52789;59.980;30.346;2023-04-26T09:03:59;100322.53;;;19.50;32.13
66021;BME280;52789;59.980;30.346;2023-04-26T09:06:24;100308.91;;;19.45;31.89
66021;BME280;52789;59.980;30.346;2023-04-26T09:08:52;100307.38;;;19.38;32.11
66021;BME280;52789;59.980;30.346;2023-04-26T09:11:19;100302.88;;;19.32;31.66
66021;BME280;52789;59.980;30.346;2023-04-26T09:13:44;100298.31;;;19.32;31.44
66021;BME280;52789;59.980;30.346;2023-04-26T09:16:09;100308.66;;;19.35;31.31
66021;BME280;52789;59.980;30.346;2023-04-26T09:18:45;100301.59;;;19.34;31.65
66021;BME280;52789;59.980;30.346;2023-04-26T09:21:11;100296.59;;;19.38;31.52
66021;BME280;52789;59.980;30.346;2023-04-26T09:23:55;100301.41;;;19.47;31.86
66021;BME280;52789;59.980;30.346;2023-04-26T09:26:21;100301.41;;;19.47;31.66
66021;BME280;52789;59.980;30.346;2023-04-26T09:28:46;100287.00;;;19.54;32.09
66021;BME280;52789;59.980;30.346;2023-04-26T09:31:13;100281.72;;;19.59;31.78
66021;BME280;52789;59.980;30.346;2023-04-26T09:33:59;100281.25;;;19.62;31.70
66021;BME280;52789;59.980;30.346;2023-04-26T09:36:24;100279.50;;;19.67;31.18
66021;BME280;52789;59.980;30.346;2023-04-26T09:38:50;100277.75;;;19.73;31.74
66021;BME280;52789;59.980;30.346;2023-04-26T09:41:15;100273.53;;;19.77;31.24
66021;BME280;52789;59.980;30.346;2023-04-26T09:43:41;100277.97;;;19.83;30.82
66021;BME280;52789;59.980;30.346;2023-04-26T09:46:07;100281.53;;;19.95;30.59
66021;BME280;52789;59.980;30.346;2023-04-26T09:48:33;100281.88;;;19.99;30.32
66021;BME280;52789;59.980;30.346;2023-04-26T09:53:28;100274.91;;;19.91;29.97
66021;BME280;52789;59.980;30.346;2023-04-26T09:55:55;100264.69;;;19.93;30.28
66021;BME280;52789;59.980;30.346;2023-04-26T09:58:21;100264.69;;;20.05;30.74
66021;BME280;52789;59.980;30.346;2023-04-26T10:00:49;100264.78;;;20.22;30.24
66021;BME280;52789;59.980;30.346;2023-04-26T10:03:14;100259.59;;;20.32;30.24
66021;BME280;52789;59.980;30.346;2023-04-26T10:05:42;100263.47;;;20.36;29.35
66021;BME280;52789;59.980;30.346;2023-04-26T10:08:07;100259.69;;;20.37;29.00
66021;BME280;52789;59.980;30.346;2023-04-26T10:10:33;100258.63;;;20.38;29.35
66021;BME280;52789;59.980;30.346;2023-04-26T10:12:59;100260.56;;;20.26;29.39
66021;BME280;52789;59.980;30.346;2023-04-26T10:15:25;100261.84;;;20.11;29.44
66021;BME280;52789;59.980;30.346;2023-04-26T10:17:50;100266.00;;;20.02;28.98
66021;BME280;52789;59.980;30.346;2023-04-26T10:20:15;100259.91;;;19.95;29.77
66021;BME280;52789;59.980;30.346;2023-04-26T10:22:44;100257.06;;;19.90;29.59
66021;BME280;52789;59.980;30.346;2023-04-26T10:25:10;100253.78;;;19.88;30.14
66021;BME280;52789;59.980;30.346;2023-04-26T10:30:07;100249.06;;;19.84;29.42
66021;BME280;52789;59.980;30.346;2023-04-26T10:32:41;100249.06;;;19.84;30.28
66021;BME280;52789;59.980;30.346;2023-04-26T10:35:18;100251.66;;;19.90;30.22
66021;BME280;52789;59.980;30.346;2023-04-26T10:40:30;100250.41;;;20.45;28.88
66021;BME280;52789;59.980;30.346;2023-04-26T10:45:32;100245.25;;;21.00;28.17
66021;BME280;52789;59.980;30.346;2023-04-26T10:48:31;100249.44;;;21.08;28.76
66021;BME280;52789;59.980;30.346;2023-04-26T10:55:53;100249.53;;;21.41;28.83
66021;BME280;52789;59.980;30.346;2023-04-26T10:58:31;100255.50;;;21.60;28.99
66021;BME280;52789;59.980;30.346;2023-04-26T11:03:39;100260.41;;;21.63;28.40
66021;BME280;52789;59.980;30.346;2023-04-26T11:06:05;100248.59;;;21.36;28.14
66021;BME280;52789;59.980;30.346;2023-04-26T11:08:31;100250.38;;;21.13;28.18
66021;BME280;52789;59.980;30.346;2023-04-26T11:10:57;100258.88;;;21.05;28.29
66021;BME280;52789;59.980;30.346;2023-04-26T11:13:23;100253.78;;;20.92;28.27
66021;BME280;52789;59.980;30.346;2023-04-26T11:15:52;100245.22;;;20.83;29.09
66021;BME280;52789;59.980;30.346;2023-04-26T11:18:17;100256.88;;;20.84;28.73
66021;BME280;52789;59.980;30.346;2023-04-26T11:20:43;100250.16;;;20.86;28.83
66021;BME280;52789;59.980;30.346;2023-04-26T11:23:09;100260.66;;;20.83;28.57
66021;BME280;52789;59.980;30.346;2023-04-26T11:25:34;100260.44;;;20.72;29.00
66021;BME280;52789;59.980;30.346;2023-04-26T11:28:03;100255.00;;;20.56;28.60
66021;BME280;52789;59.980;30.346;2023-04-26T11:30:30;100261.00;;;20.46;29.14
66021;BME280;52789;59.980;30.346;2023-04-26T11:32:56;100262.28;;;20.44;28.55
66021;BME280;52789;59.980;30.346;2023-04-26T11:35:22;100260.41;;;20.32;28.76
66021;BME280;52789;59.980;30.346;2023-04-26T11:37:47;100250.19;;;20.23;28.90
66021;BME280;52789;59.980;30.346;2023-04-26T11:40:15;100252.31;;;20.21;29.43
66021;BME280;52789;59.980;30.346;2023-04-26T11:42:42;100250.31;;;20.28;29.90
66021;BME280;52789;59.980;30.346;2023-04-26T11:45:08;100260.75;;;20.36;30.09
66021;BME280;52789;59.980;30.346;2023-04-26T11:47:33;100257.22;;;20.47;29.56
66021;BME280;52789;59.980;30.346;2023-04-26T11:50:00;100248.47;;;20.68;28.97
66021;BME280;52789;59.980;30.346;2023-04-26T11:52:25;100250.00;;;20.93;29.07
66021;BME280;52789;59.980;30.346;2023-04-26T11:55:00;100250.22;;;21.20;28.94
66021;BME280;52789;59.980;30.346;2023-04-26T11:57:25;100245.81;;;21.47;27.37
66021;BME280;52789;59.980;30.346;2023-04-26T12:00:05;100268.56;;;21.80;27.57
66021;BME280;52789;59.980;30.346;2023-04-26T12:02:30;100265.75;;;22.08;26.79
66021;BME280;52789;59.980;30.346;2023-04-26T12:04:59;100261.69;;;22.11;25.92
66021;BME280;52789;59.980;30.346;2023-04-26T12:07:24;100252.50;;;22.12;26.72
66021;BME280;52789;59.980;30.346;2023-04-26T12:09:50;100253.00;;;22.09;26.99
66021;BME280;52789;59.980;30.346;2023-04-26T12:12:15;100254.75;;;22.20;27.17
66021;BME280;52789;59.980;30.346;2023-04-26T12:14:40;100256.47;;;22.26;26.43
66021;BME280;52789;59.980;30.346;2023-04-26T12:17:14;100252.31;;;22.18;27.12
66021;BME280;52789;59.980;30.346;2023-04-26T12:19:48;100259.00;;;22.11;27.21
66021;BME280;52789;59.980;30.346;2023-04-26T12:22:18;100244.69;;;21.99;27.09
66021;BME280;52789;59.980;30.346;2023-04-26T12:24:44;100247.25;;;21.88;27.84
66021;BME280;52789;59.980;30.346;2023-04-26T12:27:18;100253.59;;;21.77;27.78
66021;BME280;52789;59.980;30.346;2023-04-26T12:29:44;100251.72;;;21.78;28.30
66021;BME280;52789;59.980;30.346;2023-04-26T12:32:09;100249.56;;;21.80;28.08
66021;BME280;52789;59.980;30.346;2023-04-26T12:34:34;100251.22;;;21.81;28.14
66021;BME280;52789;59.980;30.346;2023-04-26T12:37:00;100254.44;;;21.61;27.74
66021;BME280;52789;59.980;30.346;2023-04-26T12:39:25;100250.72;;;21.33;27.88
66021;BME280;52789;59.980;30.346;2023-04-26T12:41:50;100250.66;;;21.28;28.41
66021;BME280;52789;59.980;30.346;2023-04-26T12:44:16;100243.19;;;21.36;28.35
66021;BME280;52789;59.980;30.346;2023-04-26T12:46:41;100249.59;;;21.46;28.00
66021;BME280;52789;59.980;30.346;2023-04-26T12:49:07;100255.03;;;21.46;28.27
66021;BME280;52789;59.980;30.346;2023-04-26T12:51:35;100247.63;;;21.42;27.75
66021;BME280;52789;59.980;30.346;2023-04-26T12:54:00;100244.75;;;21.31;27.86
66021;BME280;52789;59.980;30.346;2023-04-26T12:56:25;100246.78;;;21.24;28.81
66021;BME280;52789;59.980;30.346;2023-04-26T12:58:51;100252.53;;;21.28;28.36